Saint-Moise, Canada
Current Conditions -  °F | °C
As of 11:00 AM on Thursday 29 Jan 2015 (Local Time) from CYYY Reporting Station
Overcast Overcast  
Wind Chill: 13°   Ceiling: 4000
Heat Index: 19°   Visibility: 30mi
Dew Point: 10°   Wind: 5mph
Humidity: 68%   Direction: 220°SW
Pressure: 30.22"   Gusts: NA
Location:  48.53°N, 67.85°W
Report Text: CYYY 291600Z 22004KT 190V250 30SM OVC040 M07/M12 A3022 RMK SC8 SLP236
Loading
Personal Weather Stations






























Interactive Weather Map New forecast layout! Learn more

10-Day Weather Forecast

Advertisements
Track Severe Weather on mobile